sensor_id;sensor_type;location;lat;lon;timestamp;P1;durP1;ratioP1;P2;durP2;ratioP2
7027;SDS011;3555;53.248;10.336;2022-07-23T00:00:11;3.88;;;1.33;;
7027;SDS011;3555;53.248;10.336;2022-07-23T00:02:40;3.08;;;1.40;;
7027;SDS011;3555;53.248;10.336;2022-07-23T00:05:07;3.97;;;1.35;;
7027;SDS011;3555;53.248;10.336;2022-07-23T00:07:34;4.78;;;1.63;;
7027;SDS011;3555;53.248;10.336;2022-07-23T00:10:01;2.58;;;1.40;;
7027;SDS011;3555;53.248;10.336;2022-07-23T00:12:28;4.93;;;1.50;;
7027;SDS011;3555;53.248;10.336;2022-07-23T00:14:55;3.42;;;1.30;;
7027;SDS011;3555;53.248;10.336;2022-07-23T00:17:22;4.20;;;1.30;;
7027;SDS011;3555;53.248;10.336;2022-07-23T00:19:50;2.03;;;1.15;;
7027;SDS011;3555;53.248;10.336;2022-07-23T00:22:18;2.88;;;1.35;;
7027;SDS011;3555;53.248;10.336;2022-07-23T00:24:45;2.88;;;1.40;;
7027;SDS011;3555;53.248;10.336;2022-07-23T00:27:12;4.03;;;1.38;;
7027;SDS011;3555;53.248;10.336;2022-07-23T00:29:39;2.85;;;1.40;;
7027;SDS011;3555;53.248;10.336;2022-07-23T00:32:05;3.47;;;1.50;;
7027;SDS011;3555;53.248;10.336;2022-07-23T00:34:32;2.60;;;1.27;;
7027;SDS011;3555;53.248;10.336;2022-07-23T00:37:00;3.67;;;1.85;;
7027;SDS011;3555;53.248;10.336;2022-07-23T00:39:27;2.42;;;1.60;;
7027;SDS011;3555;53.248;10.336;2022-07-23T00:41:54;4.35;;;1.60;;
7027;SDS011;3555;53.248;10.336;2022-07-23T00:44:22;5.00;;;1.55;;
7027;SDS011;3555;53.248;10.336;2022-07-23T00:46:50;2.65;;;1.35;;
7027;SDS011;3555;53.248;10.336;2022-07-23T00:49:19;2.78;;;1.30;;
7027;SDS011;3555;53.248;10.336;2022-07-23T00:51:46;2.53;;;1.10;;
7027;SDS011;3555;53.248;10.336;2022-07-23T00:54:15;4.47;;;1.35;;
7027;SDS011;3555;53.248;10.336;2022-07-23T00:56:42;3.10;;;1.30;;
7027;SDS011;3555;53.248;10.336;2022-07-23T00:59:10;2.47;;;1.60;;
7027;SDS011;3555;53.248;10.336;2022-07-23T01:01:37;2.38;;;1.40;;
7027;SDS011;3555;53.248;10.336;2022-07-23T01:04:04;4.20;;;1.63;;
7027;SDS011;3555;53.248;10.336;2022-07-23T01:06:31;4.55;;;1.25;;
7027;SDS011;3555;53.248;10.336;2022-07-23T01:09:02;3.67;;;1.30;;
7027;SDS011;3555;53.248;10.336;2022-07-23T01:11:31;5.38;;;1.70;;
7027;SDS011;3555;53.248;10.336;2022-07-23T01:13:58;3.80;;;1.40;;
7027;SDS011;3555;53.248;10.336;2022-07-23T01:16:25;4.47;;;1.55;;
7027;SDS011;3555;53.248;10.336;2022-07-23T01:18:52;3.25;;;1.20;;
7027;SDS011;3555;53.248;10.336;2022-07-23T01:21:19;3.17;;;1.27;;
7027;SDS011;3555;53.248;10.336;2022-07-23T01:23:48;2.72;;;1.30;;
7027;SDS011;3555;53.248;10.336;2022-07-23T01:26:15;4.40;;;1.30;;
7027;SDS011;3555;53.248;10.336;2022-07-23T01:28:42;4.05;;;1.38;;
7027;SDS011;3555;53.248;10.336;2022-07-23T01:31:09;5.60;;;1.33;;
7027;SDS011;3555;53.248;10.336;2022-07-23T01:33:36;3.28;;;1.58;;
7027;SDS011;3555;53.248;10.336;2022-07-23T01:36:03;1.35;;;1.23;;
7027;SDS011;3555;53.248;10.336;2022-07-23T01:38:30;3.72;;;1.20;;
7027;SDS011;3555;53.248;10.336;2022-07-23T01:40:58;3.50;;;1.35;;
7027;SDS011;3555;53.248;10.336;2022-07-23T01:43:25;4.30;;;1.35;;
7027;SDS011;3555;53.248;10.336;2022-07-23T01:45:52;4.18;;;1.27;;
7027;SDS011;3555;53.248;10.336;2022-07-23T01:48:19;3.53;;;1.33;;
7027;SDS011;3555;53.248;10.336;2022-07-23T01:50:46;3.15;;;1.40;;
7027;SDS011;3555;53.248;10.336;2022-07-23T01:53:12;4.97;;;2.10;;
7027;SDS011;3555;53.248;10.336;2022-07-23T01:55:40;5.28;;;1.15;;
7027;SDS011;3555;53.248;10.336;2022-07-23T01:58:08;3.92;;;1.42;;
7027;SDS011;3555;53.248;10.336;2022-07-23T02:00:35;5.47;;;1.50;;
7027;SDS011;3555;53.248;10.336;2022-07-23T02:03:02;5.78;;;1.40;;
7027;SDS011;3555;53.248;10.336;2022-07-23T02:05:29;4.00;;;1.30;;
7027;SDS011;3555;53.248;10.336;2022-07-23T02:07:57;3.08;;;1.17;;
7027;SDS011;3555;53.248;10.336;2022-07-23T02:10:24;3.15;;;1.40;;
7027;SDS011;3555;53.248;10.336;2022-07-23T02:12:51;3.80;;;1.33;;
7027;SDS011;3555;53.248;10.336;2022-07-23T02:15:19;3.70;;;1.45;;
7027;SDS011;3555;53.248;10.336;2022-07-23T02:17:46;4.53;;;1.38;;
7027;SDS011;3555;53.248;10.336;2022-07-23T02:20:13;4.70;;;1.10;;
7027;SDS011;3555;53.248;10.336;2022-07-23T02:22:40;4.15;;;1.50;;
7027;SDS011;3555;53.248;10.336;2022-07-23T02:25:07;2.50;;;1.42;;
7027;SDS011;3555;53.248;10.336;2022-07-23T02:27:35;5.38;;;1.63;;
7027;SDS011;3555;53.248;10.336;2022-07-23T02:30:02;2.80;;;1.33;;
7027;SDS011;3555;53.248;10.336;2022-07-23T02:32:31;3.60;;;1.25;;
7027;SDS011;3555;53.248;10.336;2022-07-23T02:34:58;3.85;;;1.48;;
7027;SDS011;3555;53.248;10.336;2022-07-23T02:37:25;5.57;;;1.48;;
7027;SDS011;3555;53.248;10.336;2022-07-23T02:39:52;3.47;;;1.58;;
7027;SDS011;3555;53.248;10.336;2022-07-23T02:42:19;4.00;;;1.70;;
7027;SDS011;3555;53.248;10.336;2022-07-23T02:44:46;5.63;;;1.90;;
7027;SDS011;3555;53.248;10.336;2022-07-23T02:47:12;5.07;;;1.40;;
7027;SDS011;3555;53.248;10.336;2022-07-23T02:49:41;1.98;;;1.40;;
7027;SDS011;3555;53.248;10.336;2022-07-23T02:52:07;3.38;;;1.80;;
7027;SDS011;3555;53.248;10.336;2022-07-23T02:54:35;2.40;;;1.63;;
7027;SDS011;3555;53.248;10.336;2022-07-23T02:57:02;3.28;;;1.45;;
7027;SDS011;3555;53.248;10.336;2022-07-23T02:59:29;4.85;;;1.92;;
7027;SDS011;3555;53.248;10.336;2022-07-23T03:01:56;5.55;;;1.70;;
7027;SDS011;3555;53.248;10.336;2022-07-23T03:04:23;2.72;;;1.48;;
7027;SDS011;3555;53.248;10.336;2022-07-23T03:06:51;2.22;;;1.45;;
7027;SDS011;3555;53.248;10.336;2022-07-23T03:09:18;3.20;;;1.65;;
7027;SDS011;3555;53.248;10.336;2022-07-23T03:11:45;2.35;;;1.50;;
7027;SDS011;3555;53.248;10.336;2022-07-23T03:14:12;3.65;;;1.48;;
7027;SDS011;3555;53.248;10.336;2022-07-23T03:16:38;2.38;;;1.30;;
7027;SDS011;3555;53.248;10.336;2022-07-23T03:19:06;4.97;;;1.60;;
7027;SDS011;3555;53.248;10.336;2022-07-23T03:21:32;4.47;;;1.55;;
7027;SDS011;3555;53.248;10.336;2022-07-23T03:24:05;4.45;;;1.50;;
7027;SDS011;3555;53.248;10.336;2022-07-23T03:26:33;2.85;;;1.48;;
7027;SDS011;3555;53.248;10.336;2022-07-23T03:28:59;3.65;;;1.45;;
7027;SDS011;3555;53.248;10.336;2022-07-23T03:31:28;3.45;;;1.25;;
7027;SDS011;3555;53.248;10.336;2022-07-23T03:33:55;5.50;;;1.67;;
7027;SDS011;3555;53.248;10.336;2022-07-23T03:36:22;3.92;;;1.45;;
7027;SDS011;3555;53.248;10.336;2022-07-23T03:38:48;4.00;;;1.50;;
7027;SDS011;3555;53.248;10.336;2022-07-23T03:41:17;4.78;;;1.45;;
7027;SDS011;3555;53.248;10.336;2022-07-23T03:43:44;2.63;;;1.20;;
7027;SDS011;3555;53.248;10.336;2022-07-23T03:46:11;3.40;;;1.30;;
7027;SDS011;3555;53.248;10.336;2022-07-23T03:48:38;2.03;;;1.23;;
7027;SDS011;3555;53.248;10.336;2022-07-23T03:51:05;4.05;;;1.40;;
7027;SDS011;3555;53.248;10.336;2022-07-23T03:53:32;1.92;;;1.23;;
7027;SDS011;3555;53.248;10.336;2022-07-23T03:55:59;6.25;;;1.63;;
7027;SDS011;3555;53.248;10.336;2022-07-23T03:58:27;5.68;;;1.58;;
7027;SDS011;3555;53.248;10.336;2022-07-23T04:00:54;4.30;;;1.60;;
7027;SDS011;3555;53.248;10.336;2022-07-23T04:03:21;3.83;;;1.30;;
7027;SDS011;3555;53.248;10.336;2022-07-23T04:05:48;4.07;;;1.60;;
7027;SDS011;3555;53.248;10.336;2022-07-23T04:08:15;3.20;;;1.40;;
7027;SDS011;3555;53.248;10.336;2022-07-23T04:10:42;2.53;;;1.33;;
7027;SDS011;3555;53.248;10.336;2022-07-23T04:13:09;4.60;;;1.75;;
7027;SDS011;3555;53.248;10.336;2022-07-23T04:15:37;3.85;;;1.50;;
7027;SDS011;3555;53.248;10.336;2022-07-23T04:18:04;3.20;;;1.30;;
7027;SDS011;3555;53.248;10.336;2022-07-23T04:20:31;5.07;;;1.40;;
7027;SDS011;3555;53.248;10.336;2022-07-23T04:22:58;2.92;;;1.30;;
7027;SDS011;3555;53.248;10.336;2022-07-23T04:25:24;2.17;;;1.42;;
7027;SDS011;3555;53.248;10.336;2022-07-23T04:27:51;5.03;;;1.30;;
7027;SDS011;3555;53.248;10.336;2022-07-23T04:30:18;3.00;;;1.58;;
7027;SDS011;3555;53.248;10.336;2022-07-23T04:32:46;4.50;;;1.90;;
7027;SDS011;3555;53.248;10.336;2022-07-23T04:35:13;2.72;;;1.27;;
7027;SDS011;3555;53.248;10.336;2022-07-23T04:37:40;3.05;;;1.52;;
7027;SDS011;3555;53.248;10.336;2022-07-23T04:40:07;3.65;;;1.42;;
7027;SDS011;3555;53.248;10.336;2022-07-23T04:42:35;3.35;;;1.55;;
7027;SDS011;3555;53.248;10.336;2022-07-23T04:45:02;3.97;;;1.60;;
7027;SDS011;3555;53.248;10.336;2022-07-23T04:47:29;4.13;;;1.52;;
7027;SDS011;3555;53.248;10.336;2022-07-23T04:49:58;4.50;;;1.60;;
7027;SDS011;3555;53.248;10.336;2022-07-23T04:52:24;3.78;;;1.55;;
7027;SDS011;3555;53.248;10.336;2022-07-23T04:54:51;2.85;;;1.40;;
7027;SDS011;3555;53.248;10.336;2022-07-23T04:57:18;3.75;;;1.80;;
7027;SDS011;3555;53.248;10.336;2022-07-23T04:59:45;3.08;;;1.80;;
7027;SDS011;3555;53.248;10.336;2022-07-23T05:02:12;4.20;;;1.50;;
7027;SDS011;3555;53.248;10.336;2022-07-23T05:04:39;4.47;;;1.70;;
7027;SDS011;3555;53.248;10.336;2022-07-23T05:07:07;3.38;;;1.63;;
7027;SDS011;3555;53.248;10.336;2022-07-23T05:09:34;4.72;;;1.98;;
7027;SDS011;3555;53.248;10.336;2022-07-23T05:12:01;5.65;;;2.00;;
7027;SDS011;3555;53.248;10.336;2022-07-23T05:14:28;3.17;;;1.52;;
7027;SDS011;3555;53.248;10.336;2022-07-23T05:16:54;5.00;;;1.83;;
7027;SDS011;3555;53.248;10.336;2022-07-23T05:19:21;5.70;;;1.80;;
7027;SDS011;3555;53.248;10.336;2022-07-23T05:21:48;3.10;;;1.92;;
7027;SDS011;3555;53.248;10.336;2022-07-23T05:24:16;1.67;;;1.33;;
7027;SDS011;3555;53.248;10.336;2022-07-23T05:26:43;4.28;;;1.67;;
7027;SDS011;3555;53.248;10.336;2022-07-23T05:29:10;4.35;;;1.77;;
7027;SDS011;3555;53.248;10.336;2022-07-23T05:31:37;5.93;;;1.90;;
7027;SDS011;3555;53.248;10.336;2022-07-23T05:34:04;3.67;;;1.50;;
7027;SDS011;3555;53.248;10.336;2022-07-23T05:36:31;3.63;;;1.88;;
7027;SDS011;3555;53.248;10.336;2022-07-23T05:38:58;3.75;;;1.65;;
7027;SDS011;3555;53.248;10.336;2022-07-23T05:41:26;3.47;;;1.50;;
7027;SDS011;3555;53.248;10.336;2022-07-23T05:43:53;2.30;;;1.80;;
7027;SDS011;3555;53.248;10.336;2022-07-23T05:46:20;3.90;;;1.90;;
7027;SDS011;3555;53.248;10.336;2022-07-23T05:48:47;4.40;;;1.88;;
7027;SDS011;3555;53.248;10.336;2022-07-23T05:51:18;3.67;;;1.90;;
7027;SDS011;3555;53.248;10.336;2022-07-23T05:53:46;7.10;;;2.13;;
7027;SDS011;3555;53.248;10.336;2022-07-23T05:56:12;5.90;;;1.70;;
7027;SDS011;3555;53.248;10.336;2022-07-23T05:58:41;3.30;;;1.80;;
7027;SDS011;3555;53.248;10.336;2022-07-23T06:01:08;3.10;;;1.55;;
7027;SDS011;3555;53.248;10.336;2022-07-23T06:03:36;3.22;;;1.98;;
7027;SDS011;3555;53.248;10.336;2022-07-23T06:06:04;4.72;;;1.80;;
7027;SDS011;3555;53.248;10.336;2022-07-23T06:08:31;2.80;;;1.90;;
7027;SDS011;3555;53.248;10.336;2022-07-23T06:10:58;4.95;;;1.80;;
7027;SDS011;3555;53.248;10.336;2022-07-23T06:13:24;5.35;;;2.05;;
7027;SDS011;3555;53.248;10.336;2022-07-23T06:15:53;9.20;;;2.53;;
7027;SDS011;3555;53.248;10.336;2022-07-23T06:18:19;7.57;;;1.77;;
7027;SDS011;3555;53.248;10.336;2022-07-23T06:20:46;3.53;;;1.33;;
7027;SDS011;3555;53.248;10.336;2022-07-23T06:23:13;3.35;;;1.40;;
7027;SDS011;3555;53.248;10.336;2022-07-23T06:25:40;3.88;;;1.63;;
7027;SDS011;3555;53.248;10.336;2022-07-23T06:28:06;6.93;;;1.70;;
7027;SDS011;3555;53.248;10.336;2022-07-23T06:30:33;2.35;;;1.20;;
7027;SDS011;3555;53.248;10.336;2022-07-23T06:33:01;3.08;;;1.10;;
7027;SDS011;3555;53.248;10.336;2022-07-23T06:35:28;2.88;;;1.30;;
7027;SDS011;3555;53.248;10.336;2022-07-23T06:37:55;1.90;;;1.23;;
7027;SDS011;3555;53.248;10.336;2022-07-23T06:40:22;6.50;;;1.60;;
7027;SDS011;3555;53.248;10.336;2022-07-23T06:42:49;4.05;;;1.45;;
7027;SDS011;3555;53.248;10.336;2022-07-23T06:45:16;2.40;;;1.20;;
7027;SDS011;3555;53.248;10.336;2022-07-23T06:47:43;3.25;;;1.70;;
7027;SDS011;3555;53.248;10.336;2022-07-23T06:50:11;3.25;;;1.23;;
7027;SDS011;3555;53.248;10.336;2022-07-23T06:52:38;3.30;;;1.20;;
7027;SDS011;3555;53.248;10.336;2022-07-23T06:55:05;5.10;;;1.58;;
7027;SDS011;3555;53.248;10.336;2022-07-23T06:57:32;2.92;;;1.20;;
7027;SDS011;3555;53.248;10.336;2022-07-23T06:59:59;3.20;;;1.10;;
7027;SDS011;3555;53.248;10.336;2022-07-23T07:02:26;3.55;;;1.00;;
7027;SDS011;3555;53.248;10.336;2022-07-23T07:04:53;4.53;;;1.00;;
7027;SDS011;3555;53.248;10.336;2022-07-23T07:07:22;4.65;;;1.17;;
7027;SDS011;3555;53.248;10.336;2022-07-23T07:09:49;1.98;;;0.98;;
7027;SDS011;3555;53.248;10.336;2022-07-23T07:12:16;3.55;;;1.05;;
7027;SDS011;3555;53.248;10.336;2022-07-23T07:14:43;4.00;;;0.90;;
7027;SDS011;3555;53.248;10.336;2022-07-23T07:17:09;3.47;;;1.00;;
7027;SDS011;3555;53.248;10.336;2022-07-23T07:19:36;2.97;;;1.00;;
7027;SDS011;3555;53.248;10.336;2022-07-23T07:22:03;3.67;;;0.85;;
7027;SDS011;3555;53.248;10.336;2022-07-23T07:24:31;4.25;;;1.42;;
7027;SDS011;3555;53.248;10.336;2022-07-23T07:26:58;2.45;;;0.80;;
7027;SDS011;3555;53.248;10.336;2022-07-23T07:29:25;2.67;;;0.93;;
7027;SDS011;3555;53.248;10.336;2022-07-23T07:31:53;3.95;;;0.90;;
7027;SDS011;3555;53.248;10.336;2022-07-23T07:34:20;2.95;;;0.73;;
7027;SDS011;3555;53.248;10.336;2022-07-23T07:36:46;4.88;;;0.85;;
7027;SDS011;3555;53.248;10.336;2022-07-23T07:39:14;2.40;;;0.70;;
7027;SDS011;3555;53.248;10.336;2022-07-23T07:41:43;2.35;;;0.73;;
7027;SDS011;3555;53.248;10.336;2022-07-23T07:44:09;2.08;;;0.80;;
7027;SDS011;3555;53.248;10.336;2022-07-23T07:46:36;2.17;;;0.90;;
7027;SDS011;3555;53.248;10.336;2022-07-23T07:49:03;2.33;;;0.75;;
7027;SDS011;3555;53.248;10.336;2022-07-23T07:51:30;2.22;;;0.90;;
7027;SDS011;3555;53.248;10.336;2022-07-23T07:53:57;2.83;;;0.68;;
7027;SDS011;3555;53.248;10.336;2022-07-23T07:56:24;2.80;;;0.93;;
7027;SDS011;3555;53.248;10.336;2022-07-23T07:58:52;2.35;;;0.68;;
7027;SDS011;3555;53.248;10.336;2022-07-23T08:01:19;2.55;;;0.70;;
7027;SDS011;3555;53.248;10.336;2022-07-23T08:03:46;2.78;;;0.80;;
7027;SDS011;3555;53.248;10.336;2022-07-23T08:06:13;2.80;;;0.75;;
7027;SDS011;3555;53.248;10.336;2022-07-23T08:08:40;2.50;;;0.65;;
7027;SDS011;3555;53.248;10.336;2022-07-23T08:11:07;2.97;;;0.80;;
7027;SDS011;3555;53.248;10.336;2022-07-23T08:13:34;2.60;;;0.70;;
7027;SDS011;3555;53.248;10.336;2022-07-23T08:16:02;2.80;;;0.70;;
7027;SDS011;3555;53.248;10.336;2022-07-23T08:18:29;3.78;;;0.95;;
7027;SDS011;3555;53.248;10.336;2022-07-23T08:20:56;4.63;;;1.15;;
7027;SDS011;3555;53.248;10.336;2022-07-23T08:23:23;3.50;;;1.00;;
7027;SDS011;3555;53.248;10.336;2022-07-23T08:25:50;2.95;;;0.77;;
7027;SDS011;3555;53.248;10.336;2022-07-23T08:28:17;3.50;;;0.90;;
7027;SDS011;3555;53.248;10.336;2022-07-23T08:30:44;3.55;;;0.90;;
7027;SDS011;3555;53.248;10.336;2022-07-23T08:33:13;2.22;;;0.65;;
7027;SDS011;3555;53.248;10.336;2022-07-23T08:35:41;1.40;;;0.90;;
7027;SDS011;3555;53.248;10.336;2022-07-23T08:38:11;1.73;;;0.70;;
7027;SDS011;3555;53.248;10.336;2022-07-23T08:40:40;3.40;;;1.02;;
7027;SDS011;3555;53.248;10.336;2022-07-23T08:43:09;3.50;;;0.77;;
7027;SDS011;3555;53.248;10.336;2022-07-23T08:45:38;5.40;;;0.93;;
7027;SDS011;3555;53.248;10.336;2022-07-23T08:48:07;1.95;;;0.70;;
7027;SDS011;3555;53.248;10.336;2022-07-23T08:50:38;2.55;;;1.00;;
7027;SDS011;3555;53.248;10.336;2022-07-23T08:53:09;3.22;;;0.90;;
7027;SDS011;3555;53.248;10.336;2022-07-23T08:55:37;2.80;;;1.00;;
7027;SDS011;3555;53.248;10.336;2022-07-23T08:58:04;2.35;;;0.70;;
7027;SDS011;3555;53.248;10.336;2022-07-23T09:00:31;2.85;;;0.88;;
7027;SDS011;3555;53.248;10.336;2022-07-23T09:02:58;4.30;;;0.80;;
7027;SDS011;3555;53.248;10.336;2022-07-23T09:05:25;3.63;;;0.90;;
7027;SDS011;3555;53.248;10.336;2022-07-23T09:08:09;2.10;;;0.80;;
7027;SDS011;3555;53.248;10.336;2022-07-23T09:10:48;2.22;;;0.90;;
7027;SDS011;3555;53.248;10.336;2022-07-23T09:13:23;3.78;;;1.10;;
7027;SDS011;3555;53.248;10.336;2022-07-23T09:15:59;2.13;;;1.00;;
7027;SDS011;3555;53.248;10.336;2022-07-23T09:18:30;1.83;;;1.00;;
7027;SDS011;3555;53.248;10.336;2022-07-23T09:21:08;3.42;;;1.10;;
7027;SDS011;3555;53.248;10.336;2022-07-23T09:23:42;3.97;;;1.00;;
7027;SDS011;3555;53.248;10.336;2022-07-23T09:26:17;1.90;;;0.80;;
7027;SDS011;3555;53.248;10.336;2022-07-23T09:28:49;2.85;;;1.15;;
7027;SDS011;3555;53.248;10.336;2022-07-23T09:31:18;2.53;;;0.98;;
7027;SDS011;3555;53.248;10.336;2022-07-23T09:33:45;1.90;;;0.90;;
7027;SDS011;3555;53.248;10.336;2022-07-23T09:36:11;1.30;;;0.60;;
7027;SDS011;3555;53.248;10.336;2022-07-23T09:38:48;2.22;;;1.05;;
7027;SDS011;3555;53.248;10.336;2022-07-23T09:41:16;1.65;;;0.75;;
7027;SDS011;3555;53.248;10.336;2022-07-23T09:43:43;4.95;;;1.10;;
7027;SDS011;3555;53.248;10.336;2022-07-23T09:46:17;2.80;;;0.82;;
7027;SDS011;3555;53.248;10.336;2022-07-23T09:48:45;2.20;;;0.90;;
7027;SDS011;3555;53.248;10.336;2022-07-23T09:51:11;3.17;;;1.08;;
7027;SDS011;3555;53.248;10.336;2022-07-23T09:53:39;1.65;;;0.85;;
7027;SDS011;3555;53.248;10.336;2022-07-23T09:56:07;2.78;;;0.80;;
7027;SDS011;3555;53.248;10.336;2022-07-23T09:58:35;2.15;;;0.77;;
7027;SDS011;3555;53.248;10.336;2022-07-23T10:01:10;1.83;;;0.88;;
7027;SDS011;3555;53.248;10.336;2022-07-23T10:03:38;2.65;;;0.98;;
7027;SDS011;3555;53.248;10.336;2022-07-23T10:06:07;2.45;;;0.75;;
7027;SDS011;3555;53.248;10.336;2022-07-23T10:08:35;1.35;;;0.70;;
7027;SDS011;3555;53.248;10.336;2022-07-23T10:11:02;1.92;;;0.70;;
7027;SDS011;3555;53.248;10.336;2022-07-23T10:13:31;1.77;;;0.75;;
7027;SDS011;3555;53.248;10.336;2022-07-23T10:16:16;1.42;;;0.80;;
7027;SDS011;3555;53.248;10.336;2022-07-23T10:18:44;2.80;;;0.80;;
7027;SDS011;3555;53.248;10.336;2022-07-23T10:21:11;1.23;;;0.60;;
7027;SDS011;3555;53.248;10.336;2022-07-23T10:23:45;1.60;;;0.90;;
7027;SDS011;3555;53.248;10.336;2022-07-23T10:26:19;1.50;;;0.50;;
7027;SDS011;3555;53.248;10.336;2022-07-23T10:29:00;1.20;;;0.55;;
7027;SDS011;3555;53.248;10.336;2022-07-23T10:31:37;1.30;;;0.60;;
7027;SDS011;3555;53.248;10.336;2022-07-23T10:34:15;1.13;;;0.63;;
7027;SDS011;3555;53.248;10.336;2022-07-23T10:36:49;1.80;;;0.80;;
7027;SDS011;3555;53.248;10.336;2022-07-23T10:39:19;1.50;;;0.70;;
7027;SDS011;3555;53.248;10.336;2022-07-23T10:41:50;1.27;;;0.60;;
7027;SDS011;3555;53.248;10.336;2022-07-23T10:44:19;1.25;;;0.50;;
7027;SDS011;3555;53.248;10.336;2022-07-23T10:46:55;1.30;;;0.50;;
7027;SDS011;3555;53.248;10.336;2022-07-23T10:49:41;1.52;;;0.60;;
7027;SDS011;3555;53.248;10.336;2022-07-23T10:52:21;1.80;;;0.50;;
7027;SDS011;3555;53.248;10.336;2022-07-23T10:54:50;2.28;;;0.77;;
7027;SDS011;3555;53.248;10.336;2022-07-23T10:57:19;1.25;;;0.50;;
7027;SDS011;3555;53.248;10.336;2022-07-23T11:02:47;0.80;;;0.50;;
7027;SDS011;3555;53.248;10.336;2022-07-23T11:05:15;1.20;;;0.63;;
7027;SDS011;3555;53.248;10.336;2022-07-23T11:10:51;1.13;;;0.50;;
7027;SDS011;3555;53.248;10.336;2022-07-23T11:19:03;1.02;;;0.57;;
7027;SDS011;3555;53.248;10.336;2022-07-23T11:21:41;2.30;;;0.60;;
7027;SDS011;3555;53.248;10.336;2022-07-23T11:24:18;1.88;;;0.70;;
7027;SDS011;3555;53.248;10.336;2022-07-23T11:26:47;1.35;;;0.63;;
7027;SDS011;3555;53.248;10.336;2022-07-23T11:29:40;2.00;;;0.60;;
7027;SDS011;3555;53.248;10.336;2022-07-23T11:35:05;1.50;;;0.60;;
7027;SDS011;3555;53.248;10.336;2022-07-23T11:37:46;1.13;;;0.40;;
7027;SDS011;3555;53.248;10.336;2022-07-23T11:40:15;1.77;;;0.73;;
7027;SDS011;3555;53.248;10.336;2022-07-23T11:42:53;1.70;;;0.63;;
7027;SDS011;3555;53.248;10.336;2022-07-23T11:45:22;2.10;;;0.50;;
7027;SDS011;3555;53.248;10.336;2022-07-23T11:47:51;2.03;;;0.70;;
7027;SDS011;3555;53.248;10.336;2022-07-23T11:50:18;2.17;;;0.60;;
7027;SDS011;3555;53.248;10.336;2022-07-23T11:52:49;2.78;;;0.40;;
7027;SDS011;3555;53.248;10.336;2022-07-23T11:55:15;2.38;;;0.63;;
7027;SDS011;3555;53.248;10.336;2022-07-23T11:57:42;0.90;;;0.52;;
7027;SDS011;3555;53.248;10.336;2022-07-23T12:00:10;2.00;;;0.60;;
7027;SDS011;3555;53.248;10.336;2022-07-23T12:02:39;1.33;;;0.65;;
7027;SDS011;3555;53.248;10.336;2022-07-23T12:05:09;0.90;;;0.50;;
7027;SDS011;3555;53.248;10.336;2022-07-23T12:07:38;1.08;;;0.50;;
7027;SDS011;3555;53.248;10.336;2022-07-23T12:10:10;1.80;;;0.63;;
7027;SDS011;3555;53.248;10.336;2022-07-23T12:12:40;1.77;;;0.50;;
7027;SDS011;3555;53.248;10.336;2022-07-23T12:15:11;1.17;;;0.65;;
7027;SDS011;3555;53.248;10.336;2022-07-23T12:17:41;1.60;;;0.80;;
7027;SDS011;3555;53.248;10.336;2022-07-23T12:20:12;3.30;;;0.75;;
7027;SDS011;3555;53.248;10.336;2022-07-23T12:22:40;1.80;;;0.50;;
7027;SDS011;3555;53.248;10.336;2022-07-23T12:25:10;1.67;;;0.50;;
7027;SDS011;3555;53.248;10.336;2022-07-23T12:27:38;0.80;;;0.50;;
7027;SDS011;3555;53.248;10.336;2022-07-23T12:32:51;2.65;;;0.70;;
7027;SDS011;3555;53.248;10.336;2022-07-23T12:35:21;1.23;;;0.57;;
7027;SDS011;3555;53.248;10.336;2022-07-23T12:37:49;1.55;;;0.50;;
7027;SDS011;3555;53.248;10.336;2022-07-23T12:40:30;0.90;;;0.55;;
7027;SDS011;3555;53.248;10.336;2022-07-23T12:42:58;1.27;;;0.50;;
7027;SDS011;3555;53.248;10.336;2022-07-23T12:45:27;1.23;;;0.40;;
7027;SDS011;3555;53.248;10.336;2022-07-23T12:48:01;1.33;;;0.50;;
7027;SDS011;3555;53.248;10.336;2022-07-23T12:50:42;1.40;;;0.50;;
7027;SDS011;3555;53.248;10.336;2022-07-23T12:53:14;1.67;;;0.50;;
7027;SDS011;3555;53.248;10.336;2022-07-23T12:55:43;0.80;;;0.40;;
7027;SDS011;3555;53.248;10.336;2022-07-23T12:58:12;1.35;;;0.40;;
7027;SDS011;3555;53.248;10.336;2022-07-23T13:00:54;2.13;;;0.50;;
7027;SDS011;3555;53.248;10.336;2022-07-23T13:03:27;0.95;;;0.40;;
7027;SDS011;3555;53.248;10.336;2022-07-23T13:05:57;0.95;;;0.60;;
7027;SDS011;3555;53.248;10.336;2022-07-23T13:08:26;2.97;;;0.70;;
7027;SDS011;3555;53.248;10.336;2022-07-23T13:10:54;0.85;;;0.40;;
7027;SDS011;3555;53.248;10.336;2022-07-23T13:13:22;2.47;;;0.85;;
7027;SDS011;3555;53.248;10.336;2022-07-23T13:15:50;3.00;;;0.52;;
7027;SDS011;3555;53.248;10.336;2022-07-23T13:18:17;1.42;;;0.50;;
7027;SDS011;3555;53.248;10.336;2022-07-23T13:20:44;1.65;;;0.50;;
7027;SDS011;3555;53.248;10.336;2022-07-23T13:23:14;2.50;;;0.65;;
7027;SDS011;3555;53.248;10.336;2022-07-23T13:25:41;1.42;;;0.50;;
7027;SDS011;3555;53.248;10.336;2022-07-23T13:28:09;0.80;;;0.50;;
7027;SDS011;3555;53.248;10.336;2022-07-23T13:30:36;1.52;;;0.50;;
7027;SDS011;3555;53.248;10.336;2022-07-23T13:33:03;1.15;;;0.50;;
7027;SDS011;3555;53.248;10.336;2022-07-23T13:35:30;1.52;;;0.60;;
7027;SDS011;3555;53.248;10.336;2022-07-23T13:37:57;2.50;;;0.70;;
7027;SDS011;3555;53.248;10.336;2022-07-23T13:40:25;1.98;;;0.75;;
7027;SDS011;3555;53.248;10.336;2022-07-23T13:42:52;0.98;;;0.40;;
7027;SDS011;3555;53.248;10.336;2022-07-23T13:45:20;1.75;;;0.68;;
7027;SDS011;3555;53.248;10.336;2022-07-23T13:47:46;2.53;;;0.70;;
7027;SDS011;3555;53.248;10.336;2022-07-23T13:50:13;1.63;;;0.50;;
7027;SDS011;3555;53.248;10.336;2022-07-23T13:52:42;2.20;;;0.63;;
7027;SDS011;3555;53.248;10.336;2022-07-23T13:55:09;1.10;;;0.50;;
7027;SDS011;3555;53.248;10.336;2022-07-23T13:57:38;1.00;;;0.40;;
7027;SDS011;3555;53.248;10.336;2022-07-23T14:00:06;0.98;;;0.50;;
7027;SDS011;3555;53.248;10.336;2022-07-23T14:02:36;2.45;;;0.70;;
7027;SDS011;3555;53.248;10.336;2022-07-23T14:05:04;4.90;;;0.68;;
7027;SDS011;3555;53.248;10.336;2022-07-23T14:07:32;0.75;;;0.40;;
7027;SDS011;3555;53.248;10.336;2022-07-23T14:10:00;1.73;;;0.60;;
7027;SDS011;3555;53.248;10.336;2022-07-23T14:12:27;1.58;;;0.50;;
7027;SDS011;3555;53.248;10.336;2022-07-23T14:14:55;1.35;;;0.65;;
7027;SDS011;3555;53.248;10.336;2022-07-23T14:17:22;1.63;;;0.60;;
7027;SDS011;3555;53.248;10.336;2022-07-23T14:19:49;1.30;;;0.60;;
7027;SDS011;3555;53.248;10.336;2022-07-23T14:22:16;1.42;;;0.50;;
7027;SDS011;3555;53.248;10.336;2022-07-23T14:24:43;1.35;;;0.50;;
7027;SDS011;3555;53.248;10.336;2022-07-23T14:27:10;1.45;;;0.60;;
7027;SDS011;3555;53.248;10.336;2022-07-23T14:29:37;2.05;;;0.60;;
7027;SDS011;3555;53.248;10.336;2022-07-23T14:32:05;1.75;;;0.80;;
7027;SDS011;3555;53.248;10.336;2022-07-23T14:34:33;2.88;;;0.68;;
7027;SDS011;3555;53.248;10.336;2022-07-23T14:37:00;1.35;;;0.50;;
7027;SDS011;3555;53.248;10.336;2022-07-23T14:39:27;1.42;;;0.60;;
7027;SDS011;3555;53.248;10.336;2022-07-23T14:41:54;1.42;;;0.75;;
7027;SDS011;3555;53.248;10.336;2022-07-23T14:44:21;1.60;;;0.63;;
7027;SDS011;3555;53.248;10.336;2022-07-23T14:46:48;1.15;;;0.52;;
7027;SDS011;3555;53.248;10.336;2022-07-23T14:49:16;1.77;;;0.95;;
7027;SDS011;3555;53.248;10.336;2022-07-23T14:51:43;1.50;;;0.60;;
7027;SDS011;3555;53.248;10.336;2022-07-23T14:54:10;1.48;;;0.60;;
7027;SDS011;3555;53.248;10.336;2022-07-23T14:56:38;1.30;;;0.60;;
7027;SDS011;3555;53.248;10.336;2022-07-23T14:59:05;1.73;;;0.65;;
7027;SDS011;3555;53.248;10.336;2022-07-23T15:01:33;1.45;;;0.70;;
7027;SDS011;3555;53.248;10.336;2022-07-23T15:04:00;1.23;;;0.60;;
7027;SDS011;3555;53.248;10.336;2022-07-23T15:06:28;1.55;;;0.60;;
7027;SDS011;3555;53.248;10.336;2022-07-23T15:08:55;1.48;;;0.70;;
7027;SDS011;3555;53.248;10.336;2022-07-23T15:11:22;1.35;;;0.55;;
7027;SDS011;3555;53.248;10.336;2022-07-23T15:13:49;1.80;;;0.60;;
7027;SDS011;3555;53.248;10.336;2022-07-23T15:16:16;1.33;;;0.60;;
7027;SDS011;3555;53.248;10.336;2022-07-23T15:18:43;1.55;;;0.68;;
7027;SDS011;3555;53.248;10.336;2022-07-23T15:21:10;2.63;;;0.68;;
7027;SDS011;3555;53.248;10.336;2022-07-23T15:23:38;3.55;;;0.70;;